Time;durP1;ratioP1;P1;durP2;ratioP2;P2;SDS_P1;SDS_P2;PMS_P1;PMS_P2;Temp;Humidity;BMP_temperature;BMP_pressure;BME280_temperature;BME280_humidity;BME280_pressure;Samples;Min_cycle;Max_cycle;Signal;HPM_P1;HPM_P2
2022/07/08 00:01:16;;;;;;;;;4.50;3.25;;;;;18.62;51.15;102340.00;4877339;29;46381;-85
2022/07/08 00:03:44;;;;;;;;;2.50;2.50;;;;;18.51;51.14;102330.19;4856341;29;47080;-85
2022/07/08 00:06:36;;;;;;;;;4.00;3.00;;;;;18.55;51.49;102334.31;4861061;29;47447;-86
2022/07/08 00:09:01;;;;;;;;;3.50;3.00;;;;;18.48;51.49;102326.91;4855314;29;47245;-84
2022/07/08 00:11:27;;;;;;;;;1.00;1.00;;;;;18.45;51.41;102326.19;4876182;29;45729;-85
2022/07/08 00:17:27;;;;;;;;;5.00;3.00;;;;;18.37;51.89;102338.34;4819411;29;46183;-85
2022/07/08 00:19:52;;;;;;;;;3.00;3.00;;;;;18.38;51.70;102340.03;4812390;29;48041;-84
2022/07/08 00:22:18;;;;;;;;;2.00;2.00;;;;;18.39;51.58;102350.56;4810556;29;45702;-84
2022/07/08 00:24:55;;;;;;;;;3.75;2.50;;;;;18.31;51.93;102337.00;4824733;29;45940;-85
2022/07/08 00:27:21;;;;;;;;;2.50;2.00;;;;;18.26;51.61;102325.91;4833155;29;47521;-84
2022/07/08 00:29:47;;;;;;;;;3.00;2.00;;;;;18.23;51.59;102326.13;4832852;29;45867;-83
2022/07/08 00:46:24;;;;;;;;;2.50;2.00;;;;;18.24;52.07;102335.81;4789993;29;45806;-84
2022/07/08 00:48:50;;;;;;;;;3.00;2.25;;;;;18.22;52.68;102331.56;4800044;29;45742;-85
2022/07/08 00:54:37;;;;;;;;;2.25;2.25;;;;;18.02;52.16;102325.09;4792059;29;45758;-85
2022/07/08 01:05:35;;;;;;;;;2.00;2.00;;;;;17.91;52.06;102340.97;2671176;23;45927;-83
2022/07/08 01:08:00;;;;;;;;;2.50;2.00;;;;;17.99;52.75;102359.78;4897691;28;46125;-84
2022/07/08 01:10:29;;;;;;;;;4.00;2.00;;;;;17.94;52.47;102357.50;4894402;29;45655;-84
2022/07/08 01:12:58;;;;;;;;;3.00;2.50;;;;;17.90;52.50;102344.56;4893786;28;47640;-83
2022/07/08 01:15:24;;;;;;;;;4.00;3.00;;;;;17.80;52.53;102349.72;4893370;29;46230;-84
2022/07/08 01:17:49;;;;;;;;;3.00;2.00;;;;;17.80;52.76;102362.13;4880177;29;45824;-84
2022/07/08 01:23:29;;;;;;;;;2.00;1.25;;;;;17.66;52.93;102365.78;4898193;28;45633;-84
2022/07/08 01:25:55;;;;;;;;;3.00;2.00;;;;;17.75;52.62;102390.78;4898402;29;46432;-84
2022/07/08 01:28:21;;;;;;;;;2.00;2.00;;;;;17.67;52.74;102378.06;4888457;29;46255;-84
2022/07/08 01:30:46;;;;;;;;;3.00;2.00;;;;;17.66;53.04;102372.88;4879541;29;45610;-83
2022/07/08 01:33:12;;;;;;;;;2.00;2.00;;;;;17.65;53.08;102381.81;4880156;29;48791;-84
2022/07/08 01:35:37;;;;;;;;;4.50;2.00;;;;;17.64;52.94;102388.91;4898794;29;46207;-84
2022/07/08 01:38:06;;;;;;;;;2.75;2.00;;;;;17.63;53.11;102378.41;4898187;28;45633;-83
2022/07/08 01:45:33;;;;;;;;;5.00;2.00;;;;;17.58;53.59;102392.81;5675082;23;46038;-84
2022/07/08 01:48:03;;;;;;;;;3.00;3.00;;;;;17.52;53.96;102387.97;4895311;28;45808;-85
2022/07/08 01:50:29;;;;;;;;;2.25;2.00;;;;;17.45;53.78;102389.34;4880568;29;47036;-84
2022/07/08 01:52:54;;;;;;;;;2.00;2.00;;;;;17.38;54.11;102381.97;4885841;29;48542;-84
2022/07/08 01:55:20;;;;;;;;;2.00;1.50;;;;;17.38;53.89;102380.13;4895840;29;47038;-84
2022/07/08 01:57:45;;;;;;;;;3.00;2.00;;;;;17.32;54.05;102377.94;4892748;29;45578;-84
2022/07/08 02:04:01;;;;;;;;;3.50;3.00;;;;;17.19;54.30;102364.72;4730579;29;46543;-85
2022/07/08 02:06:28;;;;;;;;;2.00;2.00;;;;;17.25;54.18;102373.19;4723706;30;46404;-83
2022/07/08 02:08:53;;;;;;;;;4.75;3.00;;;;;17.19;54.17;102363.88;4724362;30;45720;-84
2022/07/08 02:14:02;;;;;;;;;2.25;2.25;;;;;17.18;54.09;102378.06;4725736;30;45656;-85
2022/07/08 02:16:28;;;;;;;;;4.00;3.00;;;;;17.17;54.52;102379.00;4729131;30;47059;-84
2022/07/08 02:18:53;;;;;;;;;2.25;2.25;;;;;17.13;54.30;102380.19;4719287;30;47357;-85
2022/07/08 02:21:19;;;;;;;;;3.00;2.50;;;;;17.08;54.40;102383.16;4713445;30;45929;-84
2022/07/08 02:23:44;;;;;;;;;3.50;2.50;;;;;17.07;54.52;102383.25;4722258;30;46454;-84
2022/07/08 02:26:09;;;;;;;;;2.00;2.00;;;;;17.04;54.38;102370.25;4724047;29;45802;-84
2022/07/08 02:28:35;;;;;;;;;3.25;3.00;;;;;17.08;54.49;102384.97;4729869;30;46121;-85
2022/07/08 02:31:00;;;;;;;;;2.75;2.25;;;;;17.09;54.45;102376.06;4718280;30;45966;-85
2022/07/08 02:33:25;;;;;;;;;3.00;1.00;;;;;17.01;55.29;102359.84;4721917;30;48652;-84
2022/07/08 02:35:51;;;;;;;;;5.00;5.00;;;;;16.99;54.54;102375.00;4718853;30;47277;-85
2022/07/08 02:38:16;;;;;;;;;2.00;1.00;;;;;16.96;55.08;102373.41;4718996;30;45760;-84
2022/07/08 02:40:42;;;;;;;;;3.25;2.50;;;;;16.85;54.89;102346.00;4806579;29;46046;-84
2022/07/08 02:43:10;;;;;;;;;2.00;2.00;;;;;16.91;55.06;102362.28;4895802;29;48617;-83
2022/07/08 02:45:36;;;;;;;;;3.25;3.00;;;;;16.91;55.01;102364.94;4879738;29;46678;-83
2022/07/08 02:48:01;;;;;;;;;3.75;2.00;;;;;16.93;55.37;102362.19;4896891;28;45722;-83
2022/07/08 02:50:26;;;;;;;;;2.50;2.50;;;;;16.86;55.38;102355.63;4897653;29;45624;-83
2022/07/08 02:52:52;;;;;;;;;5.00;3.00;;;;;16.83;55.53;102362.00;4892158;29;47815;-82
2022/07/08 02:56:20;;;;;;;;;;;;;;;;;;;;;
2022/07/08 03:03:03;;;;;;;;;2.00;2.00;;;;;16.79;55.63;102365.78;4880015;29;45813;-85
2022/07/08 03:09:15;;;;;;;;;3.00;3.00;;;;;16.67;56.19;102367.50;5138171;23;45852;-84
2022/07/08 03:18:54;;;;;;;;;3.25;2.75;;;;;16.60;55.99;102374.16;4768159;29;46812;-85
2022/07/08 03:21:32;;;;;;;;;4.00;3.00;;;;;16.48;55.90;102358.22;4784116;29;46314;-84
2022/07/08 03:23:57;;;;;;;;;3.00;2.50;;;;;16.54;55.85;102371.91;4794559;29;45892;-85
2022/07/08 03:26:49;;;;;;;;;3.50;2.75;;;;;16.63;56.02;102392.47;4796396;29;46165;-84
2022/07/08 03:29:14;;;;;;;;;3.50;2.00;;;;;16.58;56.07;102389.25;4790168;29;45799;-85
2022/07/08 03:31:39;;;;;;;;;3.25;2.25;;;;;16.55;56.07;102389.47;4775466;29;47321;-85
2022/07/08 03:34:05;;;;;;;;;3.00;3.00;;;;;16.52;56.44;102387.00;4800173;29;46298;-85
2022/07/08 03:37:07;;;;;;;;;2.25;2.00;;;;;16.57;56.37;102408.72;4786566;29;46135;-84
2022/07/08 03:39:55;;;;;;;;;3.25;2.50;;;;;16.33;56.37;102366.25;4786067;29;45745;-84
2022/07/08 03:42:20;;;;;;;;;2.25;2.25;;;;;16.41;56.31;102389.53;4781890;29;48246;-85
2022/07/08 03:44:46;;;;;;;;;4.25;3.00;;;;;16.52;56.36;102407.38;4778611;29;46006;-84
2022/07/08 03:47:12;;;;;;;;;3.00;3.00;;;;;16.43;56.59;102403.53;4793550;29;45794;-84
2022/07/08 03:49:39;;;;;;;;;3.25;2.00;;;;;16.47;56.58;102415.59;4790527;29;45748;-83
2022/07/08 03:52:08;;;;;;;;;3.50;2.00;;;;;16.45;56.64;102408.72;4838688;29;47884;-83
2022/07/08 03:54:33;;;;;;;;;3.00;2.25;;;;;16.44;56.53;102409.66;4878244;29;45931;-84
2022/07/08 03:57:18;;;;;;;;;3.00;2.00;;;;;16.44;56.57;102412.31;4860845;29;45915;-84
2022/07/08 03:59:43;;;;;;;;;4.00;2.25;;;;;16.35;56.74;102397.91;4877189;29;45681;-85
2022/07/08 04:02:13;;;;;;;;;3.00;3.00;;;;;16.40;56.50;102410.81;4859211;29;46448;-84
2022/07/08 04:04:39;;;;;;;;;2.50;2.00;;;;;16.37;56.41;102409.22;4877442;29;45659;-85
2022/07/08 04:07:07;;;;;;;;;4.00;2.00;;;;;16.39;56.47;102412.63;4877392;29;45807;-84
2022/07/08 04:09:32;;;;;;;;;6.50;3.50;;;;;16.34;56.57;102407.63;4878579;29;45742;-84
2022/07/08 04:11:58;;;;;;;;;4.50;3.00;;;;;16.42;56.85;102414.19;4864549;29;47448;-84
2022/07/08 04:14:23;;;;;;;;;5.00;2.50;;;;;16.40;56.51;102410.81;4860154;29;45550;-84
2022/07/08 04:16:49;;;;;;;;;3.00;3.00;;;;;16.46;56.43;102421.00;4873758;29;45606;-83
2022/07/08 04:19:14;;;;;;;;;4.00;3.25;;;;;16.40;56.61;102402.88;4855513;29;47490;-83
2022/07/08 04:21:40;;;;;;;;;5.00;3.25;;;;;16.47;56.69;102420.03;4859351;29;46963;-84
2022/07/08 04:24:06;;;;;;;;;4.00;3.00;;;;;16.37;56.49;102409.22;4879125;29;45854;-84
2022/07/08 04:26:31;;;;;;;;;3.00;3.00;;;;;16.46;56.89;102423.66;4879090;29;46143;-85
2022/07/08 04:29:01;;;;;;;;;2.50;2.25;;;;;16.42;57.03;102416.84;4863919;29;47670;-85
2022/07/08 04:31:27;;;;;;;;;3.25;2.75;;;;;16.42;56.74;102415.03;4874260;29;48331;-84
2022/07/08 04:33:53;;;;;;;;;4.25;3.00;;;;;16.45;56.74;102416.66;4884914;29;45592;-84
2022/07/08 04:36:23;;;;;;;;;5.00;3.00;;;;;16.43;56.83;102419.41;4883302;29;45840;-84
2022/07/08 04:38:49;;;;;;;;;2.00;2.00;;;;;16.36;56.71;102407.50;4885190;29;47448;-84
2022/07/08 04:41:15;;;;;;;;;4.75;3.00;;;;;16.39;57.00;102420.56;4869911;29;46641;-84
2022/07/08 04:43:41;;;;;;;;;2.75;2.75;;;;;16.41;56.83;102420.47;4869319;29;45813;-84
2022/07/08 04:46:06;;;;;;;;;3.00;3.00;;;;;16.36;56.79;102407.50;4869252;29;46264;-84
2022/07/08 04:48:32;;;;;;;;;3.50;3.50;;;;;16.42;56.61;102424.78;4886780;29;46831;-84
2022/07/08 04:50:57;;;;;;;;;4.25;3.25;;;;;16.49;56.64;102436.66;4885101;29;46284;-85
2022/07/08 04:53:23;;;;;;;;;5.50;4.00;;;;;16.46;56.87;102428.94;4861628;29;46007;-83
2022/07/08 04:55:49;;;;;;;;;2.25;2.25;;;;;16.45;56.49;102430.75;4869210;29;45674;-85
2022/07/08 04:58:15;;;;;;;;;3.25;2.75;;;;;16.51;56.39;102442.72;4886020;29;45786;-84
2022/07/08 05:04:04;;;;;;;;;4.25;3.00;;;;;16.38;56.50;102429.44;4837191;29;46038;-84
2022/07/08 05:06:30;;;;;;;;;4.00;3.00;;;;;16.43;56.36;102440.56;4838399;29;45890;-85
2022/07/08 05:08:55;;;;;;;;;4.25;3.75;;;;;16.46;56.45;102439.53;4816990;29;47232;-82
2022/07/08 05:11:20;;;;;;;;;3.75;3.75;;;;;16.46;56.21;102448.31;4841128;29;45892;-84
2022/07/08 05:13:46;;;;;;;;;3.00;2.00;;;;;16.54;56.27;102461.00;4835278;29;46165;-84
2022/07/08 05:19:17;;;;;;;;;5.25;3.25;;;;;16.45;56.38;102443.13;4831134;29;46852;-83
2022/07/08 05:21:50;;;;;;;;;3.75;2.75;;;;;16.54;56.66;102456.56;4831535;29;46034;-85
2022/07/08 05:24:24;;;;;;;;;5.00;3.50;;;;;16.55;56.41;102457.44;4813278;29;45805;-86
2022/07/08 05:26:50;;;;;;;;;3.50;3.00;;;;;16.47;56.26;102439.41;4827443;29;45828;-84
2022/07/08 05:29:16;;;;;;;;;3.00;2.00;;;;;16.57;56.35;102451.06;4812364;29;47649;-85
2022/07/08 05:31:42;;;;;;;;;4.75;4.00;;;;;16.53;56.56;102446.09;4827335;29;47251;-85
2022/07/08 05:34:07;;;;;;;;;6.00;4.00;;;;;16.54;56.04;102445.13;4831776;29;46003;-84
2022/07/08 05:36:33;;;;;;;;;5.00;3.50;;;;;16.52;56.26;102442.59;4824118;29;45976;-85
2022/07/08 05:38:59;;;;;;;;;2.25;1.00;;;;;16.60;56.09;102465.94;4829614;29;45865;-84
2022/07/08 05:41:24;;;;;;;;;6.75;6.00;;;;;16.54;56.11;102451.28;4855008;29;46616;-83
2022/07/08 05:43:49;;;;;;;;;6.25;5.00;;;;;16.58;55.89;102455.41;4859852;29;45771;-85
2022/07/08 05:46:15;;;;;;;;;7.00;5.75;;;;;16.61;56.22;102465.00;4861949;29;45990;-85
2022/07/08 05:48:40;;;;;;;;;7.00;6.00;;;;;16.53;56.00;102440.78;4862600;29;47526;-86
2022/07/08 05:51:31;;;;;;;;;6.00;5.00;;;;;16.62;56.16;102448.16;4880507;29;46323;-85
2022/07/08 05:57:19;;;;;;;;;5.75;4.75;;;;;16.63;56.00;102450.69;4880006;29;45778;-83
2022/07/08 05:59:44;;;;;;;;;5.75;5.00;;;;;16.67;56.06;102444.25;4874468;29;46815;-83
2022/07/08 06:02:10;;;;;;;;;3.00;2.50;;;;;16.71;56.18;102452.84;4871343;29;47129;-86
2022/07/08 06:04:36;;;;;;;;;3.25;3.00;;;;;16.69;56.16;102442.34;4877229;29;45661;-84
2022/07/08 06:07:02;;;;;;;;;5.00;4.00;;;;;16.74;55.87;102458.75;4880276;29;46197;-83
2022/07/08 06:09:27;;;;;;;;;5.25;4.00;;;;;16.76;56.08;102446.28;4864827;29;47302;-87
2022/07/08 06:11:52;;;;;;;;;4.00;3.00;;;;;16.82;55.69;102471.50;4879067;29;45808;-85
2022/07/08 06:14:18;;;;;;;;;4.00;3.75;;;;;16.84;56.00;102460.81;4879798;29;46099;-83
2022/07/08 06:16:44;;;;;;;;;3.50;3.00;;;;;16.83;55.67;102454.66;4875855;29;45742;-87
2022/07/08 06:19:10;;;;;;;;;4.25;3.00;;;;;16.84;55.45;102450.22;4879479;29;46536;-85
2022/07/08 06:21:35;;;;;;;;;4.00;4.00;;;;;16.84;55.40;102453.72;4877944;29;47029;-87
2022/07/08 06:24:01;;;;;;;;;4.00;3.00;;;;;16.90;55.53;102455.91;4879793;29;45705;-85
2022/07/08 06:26:27;;;;;;;;;4.00;3.00;;;;;17.01;55.57;102460.47;4878627;29;45718;-85
2022/07/08 06:29:47;;;;;;;;;4.25;3.00;;;;;17.05;55.01;102468.13;4863176;29;47480;-84
2022/07/08 06:32:14;;;;;;;;;2.25;2.25;;;;;17.07;55.20;102468.00;4813672;29;45740;-85
2022/07/08 06:38:24;;;;;;;;;8.00;5.00;;;;;17.03;54.90;102448.00;4796862;29;45906;-84
2022/07/08 06:40:52;;;;;;;;;3.50;3.50;;;;;17.20;54.58;102464.44;4781535;29;47368;-86
2022/07/08 06:43:18;;;;;;;;;5.75;4.00;;;;;17.21;54.25;102475.88;4785083;29;46155;-85
2022/07/08 06:49:25;;;;;;;;;6.75;5.00;;;;;17.26;54.00;102471.09;4731433;30;45889;-83
2022/07/08 06:51:51;;;;;;;;;6.00;5.00;;;;;17.25;54.38;102457.94;4730659;30;45746;-85
2022/07/08 06:54:34;;;;;;;;;5.00;5.00;;;;;17.34;54.27;102478.50;4724876;30;46163;-84
2022/07/08 07:00:35;;;;;;;;;6.00;5.00;;;;;17.27;54.03;102467.50;4696842;30;45855;-83
2022/07/08 07:03:01;;;;;;;;;6.00;5.25;;;;;17.31;54.14;102474.28;4695343;30;45647;-84
2022/07/08 07:08:02;;;;;;;;;6.50;6.00;;;;;17.32;54.08;102472.47;5089362;23;45518;-81
2022/07/08 07:10:27;;;;;;;;;7.50;6.50;;;;;17.39;53.52;102477.22;4879125;29;46117;-83
2022/07/08 07:12:53;;;;;;;;;7.75;6.50;;;;;17.43;53.79;102469.94;4897093;29;48418;-85
2022/07/08 07:15:21;;;;;;;;;8.00;6.75;;;;;17.41;53.61;102463.88;4878526;29;46375;-83
2022/07/08 07:17:50;;;;;;;;;7.50;5.75;;;;;17.50;53.55;102472.03;4890854;28;45670;-84
2022/07/08 07:20:16;;;;;;;;;8.00;7.00;;;;;17.54;53.66;102485.94;4895620;28;45700;-83
2022/07/08 07:22:41;;;;;;;;;6.00;5.00;;;;;17.58;54.05;102482.94;4880671;29;47417;-81
2022/07/08 07:25:07;;;;;;;;;6.00;6.00;;;;;17.56;53.69;102468.09;4894969;28;47274;-82
2022/07/08 07:27:32;;;;;;;;;4.50;4.50;;;;;17.57;53.36;102464.50;4893442;28;45756;-82
2022/07/08 07:29:58;;;;;;;;;6.50;6.00;;;;;17.58;53.60;102455.59;4898938;28;46010;-83
2022/07/08 07:32:23;;;;;;;;;6.75;6.25;;;;;17.76;53.73;102477.34;4883642;29;48648;-82
2022/07/08 07:34:49;;;;;;;;;6.50;5.50;;;;;17.79;53.59;102482.41;4900888;29;45813;-83
2022/07/08 07:37:14;;;;;;;;;7.00;5.25;;;;;17.77;52.64;102465.75;4901012;29;45768;-83
2022/07/08 07:39:40;;;;;;;;;9.75;6.00;;;;;17.88;53.04;102489.69;4901428;29;45636;-83
2022/07/08 07:42:05;;;;;;;;;7.75;7.75;;;;;17.85;52.65;102481.97;4891038;28;47309;-83
2022/07/08 07:44:31;;;;;;;;;8.75;6.00;;;;;17.86;52.96;102483.66;4892676;28;47251;-82
2022/07/08 07:46:56;;;;;;;;;9.00;7.50;;;;;17.85;52.58;102480.16;4881103;29;45949;-82
2022/07/08 07:49:21;;;;;;;;;5.50;5.25;;;;;17.88;52.77;102490.53;4880888;29;45856;-84
2022/07/08 07:51:47;;;;;;;;;7.75;7.00;;;;;17.82;52.86;102476.88;4879851;29;48238;-83
2022/07/08 07:54:12;;;;;;;;;7.25;6.50;;;;;17.81;52.45;102478.69;4892576;28;45700;-78
2022/07/08 07:56:37;;;;;;;;;9.00;7.75;;;;;17.86;52.73;102481.00;4894002;28;45630;-78
2022/07/08 07:59:03;;;;;;;;;2.75;2.50;;;;;17.85;52.88;102474.00;4891173;28;45614;-78
2022/07/08 08:01:28;;;;;;;;;8.00;6.50;;;;;17.99;52.48;102479.16;4894338;28;45848;-78
2022/07/08 08:03:54;;;;;;;;;7.00;6.00;;;;;17.98;52.74;102466.84;4878921;29;47193;-79
2022/07/08 08:06:19;;;;;;;;;8.00;7.75;;;;;18.00;52.87;102459.63;4893360;28;46738;-78
2022/07/08 08:08:45;;;;;;;;;9.00;7.50;;;;;18.08;52.56;102470.56;4899272;28;45874;-79
2022/07/08 08:11:10;;;;;;;;;6.00;5.00;;;;;18.21;51.92;102489.91;4897979;28;45897;-79
2022/07/08 08:13:36;;;;;;;;;5.50;5.00;;;;;18.24;51.66;102487.03;4900490;28;46248;-80
2022/07/08 08:16:01;;;;;;;;;6.75;6.00;;;;;18.26;52.24;102478.94;4898099;28;45852;-78
2022/07/08 08:18:27;;;;;;;;;7.25;7.25;;;;;18.30;52.07;102493.72;4888358;28;45772;-78
2022/07/08 08:20:52;;;;;;;;;8.00;8.00;;;;;18.25;51.52;102478.09;4907557;28;46029;-80
2022/07/08 08:23:18;;;;;;;;;9.00;7.50;;;;;18.34;51.97;102485.41;4883315;28;47770;-77
2022/07/08 08:25:43;;;;;;;;;8.25;7.00;;;;;18.37;51.86;102485.16;4901027;28;45789;-80
2022/07/08 08:28:09;;;;;;;;;7.00;6.25;;;;;18.36;51.35;102479.97;4884286;28;45747;-79
2022/07/08 08:30:34;;;;;;;;;8.50;7.75;;;;;18.44;51.50;102486.41;4901427;29;45830;-78
2022/07/08 08:33:00;;;;;;;;;9.00;7.00;;;;;18.41;51.47;102470.69;4882706;29;45630;-79
2022/07/08 08:35:26;;;;;;;;;6.25;5.75;;;;;18.51;51.20;102473.53;4899279;28;45694;-79
2022/07/08 08:38:02;;;;;;;;;;;;;;;;;;;;;
2022/07/08 08:40:32;;;;;;;;;8.50;7.25;;;;;18.47;51.35;102453.47;4896726;28;76553;-79
2022/07/08 08:42:57;;;;;;;;;8.00;6.50;;;;;18.63;51.07;102474.44;4898858;28;46245;-79
2022/07/08 08:45:23;;;;;;;;;8.50;8.50;;;;;18.67;51.29;102478.56;4898762;29;45925;-80
2022/07/08 08:47:51;;;;;;;;;11.00;7.75;;;;;18.63;50.88;102454.03;4898858;28;45714;-78
2022/07/08 08:53:03;;;;;;;;;9.50;6.50;;;;;18.74;50.88;102459.38;4888518;28;45874;-78
2022/07/08 08:55:33;;;;;;;;;10.50;7.50;;;;;18.66;50.58;102440.56;4851005;29;45928;-80
2022/07/08 08:58:00;;;;;;;;;9.25;9.00;;;;;18.81;50.54;102455.31;4897739;28;45915;-78
2022/07/08 09:00:28;;;;;;;;;6.00;5.50;;;;;18.79;50.08;102456.38;4898340;28;45505;-79
2022/07/08 09:02:54;;;;;;;;;7.00;6.00;;;;;18.68;50.09;102425.34;4898890;28;46526;-78
2022/07/08 09:05:22;;;;;;;;;7.50;6.25;;;;;18.80;49.74;102440.34;4898645;28;45731;-75
2022/07/08 09:07:56;;;;;;;;;5.50;4.75;;;;;18.81;49.72;102433.22;4892541;28;45795;-79
2022/07/08 09:10:24;;;;;;;;;8.00;6.50;;;;;18.84;49.73;102428.50;4895705;28;45937;-79
2022/07/08 09:13:10;;;;;;;;;7.50;6.50;;;;;19.00;49.60;102448.59;4898710;28;46073;-78
2022/07/08 09:15:41;;;;;;;;;7.00;6.25;;;;;18.98;49.40;102432.78;4896803;28;45759;-81
2022/07/08 09:18:12;;;;;;;;;8.00;6.75;;;;;19.01;49.32;102423.69;4881048;29;45770;-78
2022/07/08 09:20:38;;;;;;;;;9.00;7.50;;;;;19.11;49.00;102452.09;4898554;28;46685;-78
2022/07/08 09:23:04;;;;;;;;;9.25;8.00;;;;;19.10;49.15;102436.28;4898255;28;46238;-77
2022/07/08 09:25:33;;;;;;;;;7.50;6.50;;;;;19.19;48.45;102441.72;4881137;29;45679;-77
2022/07/08 09:28:01;;;;;;;;;6.00;5.50;;;;;19.23;47.79;102450.28;4898139;28;45653;-76
2022/07/08 09:30:30;;;;;;;;;7.75;6.25;;;;;19.22;47.17;102433.50;4898358;29;46101;-79
2022/07/08 09:33:11;;;;;;;;;8.00;6.75;;;;;19.17;47.43;102418.88;4881475;28;47690;-82
2022/07/08 09:35:38;;;;;;;;;8.50;7.00;;;;;19.31;47.66;102433.75;4898929;29;45709;-81
2022/07/08 09:38:07;;;;;;;;;7.25;6.50;;;;;19.17;47.70;102394.97;4898856;28;45631;-76
2022/07/08 09:40:33;;;;;;;;;4.00;3.25;;;;;19.35;47.31;102420.09;4893795;28;46493;-79
2022/07/08 09:43:10;;;;;;;;;9.00;7.75;;;;;19.36;47.30;102416.47;4897862;29;45847;-78
2022/07/08 09:45:36;;;;;;;;;6.25;6.25;;;;;19.50;47.94;102426.03;4913143;28;45820;-80
2022/07/08 09:48:09;;;;;;;;;7.50;6.25;;;;;19.52;47.24;102419.66;4900568;28;45710;-78
2022/07/08 09:50:43;;;;;;;;;10.00;8.00;;;;;19.60;47.05;102425.19;4899987;28;45519;-81
2022/07/08 09:53:22;;;;;;;;;11.25;8.75;;;;;19.66;46.93;102434.47;4899337;28;45953;-80
2022/07/08 09:55:52;;;;;;;;;9.25;8.00;;;;;19.72;47.21;102438.47;4889940;28;45736;-82
2022/07/08 09:58:20;;;;;;;;;7.00;7.00;;;;;19.70;46.67;102427.97;4898503;29;45851;-82
2022/07/08 10:00:47;;;;;;;;;7.00;6.00;;;;;19.74;46.06;102417.91;4881111;29;47773;-82
2022/07/08 10:03:13;;;;;;;;;6.25;6.25;;;;;19.87;46.37;102435.41;4898703;28;46036;-82
2022/07/08 10:05:40;;;;;;;;;6.00;6.00;;;;;19.89;46.12;102422.84;4897929;28;45742;-78
2022/07/08 10:08:06;;;;;;;;;6.50;4.00;;;;;19.93;46.38;102423.41;4898157;28;46307;-81
2022/07/08 10:10:33;;;;;;;;;6.00;6.00;;;;;20.04;45.98;102431.38;4880140;29;47119;-79
2022/07/08 10:13:00;;;;;;;;;7.00;6.75;;;;;20.06;45.70;102419.66;4897914;29;45745;-79
2022/07/08 10:15:27;;;;;;;;;8.00;6.00;;;;;20.13;45.15;102416.47;4897281;28;45792;-81
2022/07/08 10:17:54;;;;;;;;;3.50;3.50;;;;;20.15;43.85;102425.16;4898289;28;45647;-79
2022/07/08 10:20:24;;;;;;;;;4.00;3.25;;;;;20.20;44.33;102426.47;4897559;28;46825;-81
2022/07/08 10:22:53;;;;;;;;;5.25;5.00;;;;;20.22;44.26;102415.72;4896247;28;46045;-78
2022/07/08 10:25:20;;;;;;;;;5.75;5.50;;;;;20.23;43.92;102415.59;4896634;28;45864;-79
2022/07/08 10:27:47;;;;;;;;;6.75;6.00;;;;;20.34;44.11;102415.59;4899439;28;46110;-81
2022/07/08 10:30:17;;;;;;;;;9.25;7.00;;;;;20.40;44.14;102430.19;4898970;28;45741;-82
2022/07/08 10:32:49;;;;;;;;;4.75;4.75;;;;;20.41;43.66;102408.75;4898392;29;46440;-81
2022/07/08 10:35:21;;;;;;;;;7.50;6.00;;;;;20.48;43.93;102417.91;4897622;29;45716;-80
2022/07/08 10:37:56;;;;;;;;;6.75;6.25;;;;;20.54;43.26;102416.56;4898613;28;45865;-79
2022/07/08 10:40:49;;;;;;;;;6.00;5.00;;;;;20.59;43.06;102418.84;4895590;29;46612;-79
2022/07/08 10:43:18;;;;;;;;;8.25;4.75;;;;;20.63;42.44;102426.44;4886821;28;46017;-82
2022/07/08 10:46:03;;;;;;;;;4.50;2.50;;;;;20.67;41.53;102419.88;4898986;29;45709;-83
2022/07/08 10:48:46;;;;;;;;;6.50;5.50;;;;;20.65;42.13;102411.16;4894522;28;45748;-83
2022/07/08 10:51:20;;;;;;;;;5.25;4.75;;;;;20.71;42.40;102407.16;4894960;28;46260;-87
2022/07/08 10:53:51;;;;;;;;;6.00;5.00;;;;;20.79;42.31;102417.97;4898117;28;46132;-83
2022/07/08 10:56:55;;;;;;;;;4.25;3.75;;;;;20.85;42.16;102412.13;4897380;29;45771;-87
2022/07/08 10:59:26;;;;;;;;;4.00;4.00;;;;;20.89;41.98;102409.06;4896912;28;45604;-84
2022/07/08 11:01:54;;;;;;;;;5.50;5.25;;;;;20.90;40.99;102409.91;4898733;28;45718;-81
2022/07/08 11:04:27;;;;;;;;;4.00;4.00;;;;;20.99;41.26;102409.13;4896324;29;47592;-82
2022/07/08 11:06:55;;;;;;;;;5.50;4.25;;;;;21.04;41.92;102392.75;4896343;28;45753;-83
2022/07/08 11:09:23;;;;;;;;;4.50;4.00;;;;;21.10;41.75;102406.38;4898527;29;45696;-80
2022/07/08 11:11:49;;;;;;;;;4.50;3.75;;;;;21.18;41.00;102411.91;4883555;28;46459;-78
2022/07/08 11:14:15;;;;;;;;;3.25;3.25;;;;;21.23;40.64;102395.50;4907914;28;45730;-80
2022/07/08 11:16:41;;;;;;;;;3.75;3.75;;;;;21.27;39.82;102397.75;4897920;29;45950;-77
2022/07/08 11:19:07;;;;;;;;;3.25;3.25;;;;;21.26;39.80;102385.44;4896738;29;45552;-80
2022/07/08 11:21:33;;;;;;;;;3.75;3.00;;;;;21.46;40.12;102404.16;4895913;28;45741;-79
2022/07/08 11:23:59;;;;;;;;;4.00;3.25;;;;;21.51;40.33;102393.91;4893809;29;46585;-80
2022/07/08 11:26:24;;;;;;;;;2.75;2.25;;;;;21.60;40.07;102404.59;4878965;29;46376;-80
2022/07/08 11:28:50;;;;;;;;;4.00;4.00;;;;;21.62;39.90;102388.47;4896794;29;45726;-79
2022/07/08 11:31:25;;;;;;;;;2.50;2.50;;;;;21.60;39.70;102371.75;4893049;28;45993;-80
2022/07/08 11:33:51;;;;;;;;;3.00;3.00;;;;;21.71;39.82;102388.50;4896236;28;45985;-80
2022/07/08 11:36:18;;;;;;;;;3.50;3.50;;;;;21.78;39.52;102402.97;4895722;29;45967;-78
2022/07/08 11:38:47;;;;;;;;;3.25;2.75;;;;;21.76;39.73;102380.06;4906077;28;45899;-81
2022/07/08 11:41:13;;;;;;;;;4.50;4.00;;;;;21.83;39.23;102386.53;4893226;28;46582;-79
2022/07/08 11:43:40;;;;;;;;;5.75;4.75;;;;;21.96;39.06;102395.16;4896365;29;45639;-80
2022/07/08 11:46:25;;;;;;;;;3.00;2.25;;;;;22.01;39.73;102395.59;4895901;29;45700;-80
2022/07/08 11:48:51;;;;;;;;;4.00;3.75;;;;;22.05;39.66;102383.66;4892906;29;45695;-80
2022/07/08 11:51:17;;;;;;;;;5.25;3.75;;;;;22.11;39.63;102385.75;4895142;29;46423;-80
2022/07/08 11:53:44;;;;;;;;;2.50;2.00;;;;;22.08;38.75;102372.66;4878431;28;46302;-79
2022/07/08 11:56:09;;;;;;;;;3.00;2.00;;;;;22.18;38.74;102394.91;4893400;29;45858;-81
2022/07/08 11:58:35;;;;;;;;;2.25;2.25;;;;;22.23;38.51;102391.81;4891788;28;45891;-80
2022/07/08 12:01:01;;;;;;;;;3.50;3.00;;;;;22.22;38.36;102375.91;4878688;29;46272;-80
2022/07/08 12:03:27;;;;;;;;;3.25;3.00;;;;;22.34;38.37;102378.31;4895402;28;46325;-80
2022/07/08 12:05:53;;;;;;;;;3.00;3.00;;;;;22.37;37.38;102371.81;4895894;29;45919;-80
2022/07/08 12:08:18;;;;;;;;;3.75;2.00;;;;;22.38;38.20;102376.19;4893494;28;45673;-80
2022/07/08 12:10:45;;;;;;;;;3.00;3.00;;;;;22.48;37.33;102385.03;4878460;29;47790;-80
2022/07/08 12:13:10;;;;;;;;;2.75;2.00;;;;;22.52;37.39;102381.91;4876959;29;48112;-80
2022/07/08 12:15:37;;;;;;;;;3.00;1.50;;;;;22.53;37.43;102362.22;4896019;28;45865;-79
2022/07/08 12:18:04;;;;;;;;;2.50;2.50;;;;;22.55;37.58;102368.28;4896179;28;45789;-80
2022/07/08 12:20:38;;;;;;;;;2.00;2.00;;;;;22.62;36.96;102365.03;4893833;28;46747;-80
2022/07/08 12:23:04;;;;;;;;;2.50;2.25;;;;;22.69;37.04;102382.16;4895854;29;45671;-79
2022/07/08 12:25:49;;;;;;;;;3.00;3.00;;;;;22.72;37.11;102371.22;4895510;29;45661;-81
2022/07/08 12:28:21;;;;;;;;;2.50;2.00;;;;;22.74;37.78;102356.72;4900190;28;45939;-78
2022/07/08 12:30:47;;;;;;;;;4.00;3.00;;;;;22.83;36.76;102357.69;4891655;28;46411;-79
2022/07/08 12:33:12;;;;;;;;;1.25;1.00;;;;;22.88;37.04;102371.47;4893110;28;46381;-79
2022/07/08 12:35:37;;;;;;;;;3.50;3.00;;;;;22.96;37.31;102359.03;4894357;29;45503;-78
2022/07/08 12:38:07;;;;;;;;;3.00;3.00;;;;;23.04;36.28;102365.50;4895787;28;45432;-79
2022/07/08 12:40:38;;;;;;;;;4.50;3.00;;;;;22.98;36.24;102354.41;4895404;29;45720;-81
2022/07/08 12:43:05;;;;;;;;;3.00;3.00;;;;;23.08;36.20;102351.69;4892581;29;47207;-78
2022/07/08 12:45:32;;;;;;;;;2.50;2.50;;;;;23.09;37.14;102341.81;4895809;28;46131;-79
2022/07/08 12:47:59;;;;;;;;;3.00;2.00;;;;;23.22;37.01;102355.69;4894976;29;45695;-78
2022/07/08 12:50:26;;;;;;;;;3.00;3.00;;;;;23.21;36.09;102338.78;4896738;28;46817;-78
2022/07/08 12:52:52;;;;;;;;;2.50;2.50;;;;;23.30;35.81;102339.75;4894066;28;46133;-78
2022/07/08 12:55:18;;;;;;;;;2.00;1.00;;;;;23.38;35.32;102350.53;4898080;28;45677;-79
2022/07/08 12:57:43;;;;;;;;;3.25;3.25;;;;;23.44;36.13;102344.56;4897216;28;45720;-77